createdAt,value
2022-11-01T00:00:10.000Z,77.41
2022-11-01T00:02:39.281Z,78.54
2022-11-01T00:05:06.389Z,77.11
2022-11-01T00:07:33.044Z,78.36
2022-11-01T00:09:59.696Z,78.45
2022-11-01T00:12:26.307Z,78.29
2022-11-01T00:14:53.078Z,77.60
2022-11-01T00:17:19.730Z,78.41
2022-11-01T00:19:46.314Z,78.49
2022-11-01T00:22:13.003Z,79.18
2022-11-01T00:24:39.588Z,79.33
2022-11-01T00:27:06.188Z,79.15
2022-11-01T00:29:32.735Z,79.41
2022-11-01T00:32:00.119Z,78.73
2022-11-01T00:34:26.663Z,80.22
2022-11-01T00:36:53.248Z,79.78
2022-11-01T00:39:20.050Z,80.80
2022-11-01T00:41:46.748Z,80.12
2022-11-01T00:44:13.364Z,79.87
2022-11-01T00:46:40.048Z,79.96
2022-11-01T00:49:06.578Z,80.67
2022-11-01T00:51:33.193Z,81.07
2022-11-01T00:53:59.784Z,80.71
2022-11-01T00:56:26.391Z,81.00
2022-11-01T00:58:52.953Z,80.64
2022-11-01T01:01:19.676Z,80.43
2022-11-01T01:03:46.326Z,79.35
2022-11-01T01:06:12.915Z,79.15
2022-11-01T01:08:39.564Z,79.92
2022-11-01T01:11:06.183Z,80.75
2022-11-01T01:13:32.776Z,79.28
2022-11-01T01:15:59.949Z,79.37
2022-11-01T01:18:27.164Z,79.97
2022-11-01T01:21:05.220Z,80.75
2022-11-01T01:23:32.475Z,80.53
2022-11-01T01:25:59.144Z,80.37
2022-11-01T01:28:26.086Z,81.44
2022-11-01T01:30:52.655Z,81.59
2022-11-01T01:33:19.300Z,80.81
2022-11-01T01:35:45.980Z,80.29
2022-11-01T01:38:12.605Z,80.33
2022-11-01T01:40:39.142Z,81.30
2022-11-01T01:43:05.809Z,80.92
2022-11-01T01:45:40.919Z,81.13
2022-11-01T01:48:24.586Z,80.35
2022-11-01T01:50:57.136Z,80.55
2022-11-01T01:53:25.736Z,80.18
2022-11-01T01:56:06.277Z,80.55
2022-11-01T01:58:42.071Z,79.45
2022-11-01T02:01:08.980Z,80.07
2022-11-01T02:03:37.617Z,79.85
2022-11-01T02:06:11.780Z,80.59
2022-11-01T02:08:52.438Z,82.00
2022-11-01T02:11:20.590Z,81.25
2022-11-01T02:13:47.994Z,81.72
2022-11-01T02:16:26.763Z,81.31
2022-11-01T02:19:02.118Z,80.10
2022-11-01T02:21:46.804Z,80.82
2022-11-01T02:24:44.873Z,80.74
2022-11-01T02:27:40.862Z,80.39
2022-11-01T02:30:21.053Z,81.21
2022-11-01T02:33:03.008Z,82.00
2022-11-01T02:35:52.280Z,82.44
2022-11-01T02:38:22.474Z,82.62
2022-11-01T02:41:32.747Z,82.98
2022-11-01T02:44:04.054Z,80.98
2022-11-01T02:46:54.216Z,82.13
2022-11-01T02:49:23.405Z,82.33
2022-11-01T02:51:51.156Z,82.37
2022-11-01T02:54:22.425Z,81.97
2022-11-01T02:56:50.812Z,81.17
2022-11-01T02:59:25.374Z,81.48
2022-11-01T03:02:03.637Z,81.48
2022-11-01T03:04:30.952Z,81.51
2022-11-01T03:07:01.285Z,81.08
2022-11-01T03:09:28.677Z,81.32
2022-11-01T03:12:02.451Z,81.81
2022-11-01T03:14:47.068Z,81.50
2022-11-01T03:17:22.983Z,81.24
2022-11-01T03:19:58.576Z,81.91
2022-11-01T03:23:00.752Z,82.00
2022-11-01T03:25:41.031Z,82.16
2022-11-01T03:28:19.203Z,83.02
2022-11-01T03:30:51.362Z,83.12
2022-11-01T03:33:19.396Z,83.12
2022-11-01T03:35:50.169Z,83.46
2022-11-01T03:38:21.369Z,83.47
2022-11-01T03:40:56.304Z,83.18
2022-11-01T03:43:26.732Z,83.23
2022-11-01T03:45:54.768Z,81.93
2022-11-01T03:48:21.504Z,81.78
2022-11-01T03:50:49.843Z,83.20
2022-11-01T03:53:16.489Z,83.74
2022-11-01T03:55:43.730Z,83.48
2022-11-01T03:58:10.991Z,82.90
2022-11-01T04:00:40.798Z,82.68
2022-11-01T04:03:08.661Z,83.68
2022-11-01T04:05:37.197Z,83.21
2022-11-01T04:08:04.987Z,82.76
2022-11-01T04:10:31.954Z,82.78
2022-11-01T04:12:59.510Z,83.44
2022-11-01T04:15:45.949Z,83.08
2022-11-01T04:18:37.713Z,84.28
2022-11-01T04:21:08.194Z,84.52
2022-11-01T04:23:35.819Z,83.74
2022-11-01T04:26:03.779Z,84.03
2022-11-01T04:28:30.375Z,84.52
2022-11-01T04:30:57.367Z,84.46
2022-11-01T04:33:24.003Z,84.44
2022-11-01T04:35:50.584Z,84.61
2022-11-01T04:38:17.256Z,85.25
2022-11-01T04:40:44.194Z,85.43
2022-11-01T04:43:11.484Z,85.80
2022-11-01T04:45:38.380Z,85.54
2022-11-01T04:48:13.737Z,86.07
2022-11-01T04:50:41.872Z,85.83
2022-11-01T04:53:09.898Z,85.75
2022-11-01T04:55:36.604Z,85.80
2022-11-01T04:58:04.517Z,86.43
2022-11-01T05:00:33.151Z,86.51
2022-11-01T05:03:07.726Z,86.57
2022-11-01T05:05:35.542Z,86.67
2022-11-01T05:08:13.276Z,87.28
2022-11-01T05:10:44.485Z,86.59
2022-11-01T05:13:13.151Z,87.51
2022-11-01T05:15:43.763Z,87.70
2022-11-01T05:18:20.003Z,88.21
2022-11-01T05:20:46.601Z,88.05
2022-11-01T05:23:13.339Z,87.74
2022-11-01T05:25:40.228Z,87.54
2022-11-01T05:28:11.792Z,87.74
2022-11-01T05:30:38.894Z,88.28
2022-11-01T05:33:06.972Z,88.34
2022-11-01T05:35:35.844Z,89.03
2022-11-01T05:38:04.700Z,88.23
2022-11-01T05:40:32.257Z,88.80
2022-11-01T05:42:59.215Z,88.08
2022-11-01T05:45:26.347Z,88.14
2022-11-01T05:47:52.946Z,88.36
2022-11-01T05:50:20.171Z,88.69
2022-11-01T05:52:46.816Z,88.42
2022-11-01T05:55:13.417Z,88.12
2022-11-01T05:57:40.018Z,88.50
2022-11-01T06:00:07.528Z,88.93
2022-11-01T06:02:40.191Z,88.80
2022-11-01T06:05:07.140Z,89.40
2022-11-01T06:07:35.758Z,89.54
2022-11-01T06:10:02.747Z,89.51
2022-11-01T06:12:29.276Z,90.26
2022-11-01T06:14:55.852Z,89.78
2022-11-01T06:17:22.465Z,89.40
2022-11-01T06:19:49.138Z,89.78
2022-11-01T06:22:15.659Z,89.29
2022-11-01T06:24:42.330Z,89.00
2022-11-01T06:27:12.505Z,89.24
2022-11-01T06:29:39.578Z,89.75
2022-11-01T06:32:06.582Z,89.33
2022-11-01T06:34:33.414Z,90.12
2022-11-01T06:37:00.460Z,89.64
2022-11-01T06:39:27.188Z,90.75
2022-11-01T06:41:53.777Z,90.81
2022-11-01T06:44:21.000Z,91.44
2022-11-01T06:46:47.628Z,90.39
2022-11-01T06:49:17.989Z,90.29
2022-11-01T06:51:46.252Z,90.45
2022-11-01T06:54:13.290Z,90.40
2022-11-01T06:56:40.201Z,90.27
2022-11-01T06:59:07.271Z,90.59
2022-11-01T07:01:34.027Z,90.38
2022-11-01T07:04:01.227Z,90.83
2022-11-01T07:06:31.049Z,91.63
2022-11-01T07:09:00.856Z,91.36
2022-11-01T07:11:31.452Z,91.23
2022-11-01T07:13:59.291Z,91.46
2022-11-01T07:16:26.610Z,91.66
2022-11-01T07:18:53.504Z,91.38
2022-11-01T07:21:20.494Z,91.55
2022-11-01T07:23:47.181Z,91.71
2022-11-01T07:26:13.720Z,92.47
2022-11-01T07:28:40.751Z,92.06
2022-11-01T07:31:07.502Z,92.24
2022-11-01T07:33:34.267Z,92.36
2022-11-01T07:36:02.149Z,92.80
2022-11-01T07:38:29.007Z,92.95
2022-11-01T07:40:55.559Z,92.58
2022-11-01T07:43:22.470Z,92.78
2022-11-01T07:45:49.443Z,92.99
2022-11-01T07:48:18.212Z,93.61
2022-11-01T07:50:45.766Z,93.55
2022-11-01T07:53:19.358Z,93.64
2022-11-01T07:55:46.760Z,93.87
2022-11-01T07:58:14.438Z,94.69
2022-11-01T08:00:42.771Z,94.17
2022-11-01T08:03:14.499Z,95.02
2022-11-01T08:05:42.525Z,95.23
2022-11-01T08:08:09.950Z,94.94
2022-11-01T08:10:37.396Z,94.57
2022-11-01T08:13:05.109Z,94.19
2022-11-01T08:15:32.539Z,93.59
2022-11-01T08:17:59.519Z,94.25
2022-11-01T08:20:27.484Z,94.09
2022-11-01T08:22:54.571Z,95.08
2022-11-01T08:25:21.446Z,94.65
2022-11-01T08:27:48.232Z,95.42
2022-11-01T08:30:17.930Z,95.50
2022-11-01T08:32:45.260Z,95.87
2022-11-01T08:35:12.969Z,95.59
2022-11-01T08:37:50.290Z,95.96
2022-11-01T08:40:17.550Z,96.08
2022-11-01T08:42:44.802Z,95.66
2022-11-01T08:45:11.966Z,96.42
2022-11-01T08:47:39.498Z,96.35
2022-11-01T08:50:11.171Z,97.01
2022-11-01T08:52:39.017Z,96.28
2022-11-01T08:55:07.024Z,96.37
2022-11-01T08:57:34.227Z,95.93
2022-11-01T09:00:00.964Z,97.09
2022-11-01T09:02:27.871Z,97.85
2022-11-01T09:04:54.500Z,97.81
2022-11-01T09:07:21.127Z,98.25
2022-11-01T09:09:47.762Z,97.73
2022-11-01T09:12:14.982Z,97.64
2022-11-01T09:14:41.996Z,95.84
2022-11-01T09:17:09.021Z,96.42
2022-11-01T09:19:35.700Z,96.13
2022-11-01T09:22:02.331Z,96.23
2022-11-01T09:24:29.012Z,95.89
2022-11-01T09:26:55.852Z,96.18
2022-11-01T09:29:22.534Z,95.40
2022-11-01T09:31:54.404Z,96.20
2022-11-01T09:34:21.930Z,96.70
2022-11-01T09:36:48.938Z,96.60
2022-11-01T09:39:17.773Z,96.81
2022-11-01T09:41:59.156Z,96.55
2022-11-01T09:44:39.574Z,96.02
2022-11-01T09:47:25.332Z,96.06
2022-11-01T09:50:23.884Z,95.96
2022-11-01T09:52:52.516Z,95.83
2022-11-01T09:55:30.485Z,95.58
2022-11-01T09:58:22.511Z,95.11
2022-11-01T10:01:06.803Z,95.24
2022-11-01T10:03:52.169Z,94.46
2022-11-01T10:06:24.063Z,94.73
2022-11-01T10:09:22.626Z,96.25
2022-11-01T10:11:58.290Z,95.82
2022-11-01T10:14:24.834Z,96.78
2022-11-01T10:17:15.752Z,96.68
2022-11-01T10:19:49.072Z,95.60
2022-11-01T10:22:28.152Z,95.58
2022-11-01T10:25:15.908Z,96.13
2022-11-01T10:27:57.685Z,95.76
2022-11-01T10:30:24.536Z,96.67
2022-11-01T10:33:02.730Z,96.42
2022-11-01T10:35:40.580Z,95.97
2022-11-01T10:38:32.277Z,95.66
2022-11-01T10:41:37.079Z,96.34
2022-11-01T10:44:09.445Z,96.42
2022-11-01T10:46:45.852Z,96.03
2022-11-01T10:49:24.744Z,95.26
2022-11-01T10:51:55.291Z,96.43
2022-11-01T10:54:30.760Z,98.01
2022-11-01T10:57:04.098Z,99.01
2022-11-01T10:59:46.400Z,99.63
2022-11-01T11:02:25.848Z,100.00
2022-11-01T11:04:52.707Z,100.00
2022-11-01T11:07:23.175Z,100.00
2022-11-01T11:09:51.370Z,100.00
2022-11-01T11:12:21.468Z,100.00
2022-11-01T11:14:53.404Z,100.00
2022-11-01T11:17:31.450Z,100.00
2022-11-01T11:20:03.266Z,100.00
2022-11-01T11:22:30.910Z,99.72
2022-11-01T11:24:59.135Z,99.93
2022-11-01T11:27:29.976Z,98.48
2022-11-01T11:29:58.663Z,98.23
2022-11-01T11:32:34.323Z,98.97
2022-11-01T11:35:04.014Z,99.17
2022-11-01T11:37:34.951Z,99.57
2022-11-01T11:40:17.216Z,99.52
2022-11-01T11:42:45.876Z,99.50
2022-11-01T11:45:27.483Z,99.62
2022-11-01T11:48:14.373Z,99.59
2022-11-01T11:50:42.087Z,99.27
2022-11-01T11:53:23.338Z,99.90
2022-11-01T11:55:56.904Z,100.00
2022-11-01T11:58:23.508Z,99.96
2022-11-01T12:00:54.416Z,100.00
2022-11-01T12:03:22.413Z,100.00
2022-11-01T12:05:59.697Z,100.00
2022-11-01T12:08:37.892Z,100.00
2022-11-01T12:11:05.420Z,100.00
2022-11-01T12:13:37.640Z,100.00
2022-11-01T12:16:16.779Z,100.00
2022-11-01T12:19:01.318Z,100.00
2022-11-01T12:21:37.396Z,100.00
2022-11-01T12:24:20.178Z,100.00
2022-11-01T12:26:48.472Z,100.00
2022-11-01T12:29:51.186Z,100.00
2022-11-01T12:32:24.794Z,100.00
2022-11-01T12:34:54.867Z,100.00
2022-11-01T12:37:42.649Z,100.00
2022-11-01T12:40:41.143Z,100.00
2022-11-01T12:43:27.735Z,100.00
2022-11-01T12:46:00.206Z,100.00
2022-11-01T12:48:29.494Z,100.00
2022-11-01T12:50:58.938Z,100.00
2022-11-01T12:53:34.461Z,100.00
2022-11-01T12:56:01.077Z,100.00
2022-11-01T12:58:30.851Z,100.00
2022-11-01T13:01:25.947Z,100.00
2022-11-01T13:04:17.180Z,100.00
2022-11-01T13:07:05.650Z,99.23
2022-11-01T13:09:50.404Z,99.83
2022-11-01T13:12:29.355Z,100.00
2022-11-01T13:15:25.723Z,100.00
2022-11-01T13:18:01.917Z,99.72
2022-11-01T13:20:31.516Z,99.90
2022-11-01T13:23:15.108Z,100.00
2022-11-01T13:25:44.417Z,100.00
2022-11-01T13:28:36.065Z,100.00
2022-11-01T13:31:06.282Z,100.00
2022-11-01T13:33:53.592Z,100.00
2022-11-01T13:36:38.541Z,100.00
2022-11-01T13:39:14.610Z,100.00
2022-11-01T13:41:58.819Z,100.00
2022-11-01T13:44:29.719Z,100.00
2022-11-01T13:47:15.803Z,99.38
2022-11-01T13:50:01.018Z,99.39
2022-11-01T13:52:31.647Z,97.99
2022-11-01T13:55:23.884Z,100.00
2022-11-01T13:57:50.702Z,95.79
2022-11-01T14:00:50.241Z,97.31
2022-11-01T14:03:24.918Z,97.63
2022-11-01T14:06:09.590Z,97.17
2022-11-01T14:08:38.225Z,96.49
2022-11-01T14:11:05.161Z,96.30
2022-11-01T14:13:38.985Z,96.61
2022-11-01T14:16:14.915Z,95.04
2022-11-01T14:19:03.611Z,94.09
2022-11-01T14:21:48.839Z,93.59
2022-11-01T14:24:24.802Z,93.35
2022-11-01T14:27:02.164Z,92.95
2022-11-01T14:29:30.270Z,92.54
2022-11-01T14:31:58.028Z,92.78
2022-11-01T14:34:30.261Z,93.53
2022-11-01T14:37:01.689Z,93.26
2022-11-01T14:39:37.359Z,92.21
2022-11-01T14:42:10.630Z,94.80
2022-11-01T14:44:48.185Z,95.65
2022-11-01T14:47:30.570Z,96.41
2022-11-01T14:50:02.149Z,96.58
2022-11-01T14:52:35.778Z,96.32
2022-11-01T14:55:13.399Z,96.23
2022-11-01T14:57:40.429Z,96.26
2022-11-01T15:00:24.670Z,96.61
2022-11-01T15:02:52.063Z,96.61
2022-11-01T15:05:18.740Z,96.31
2022-11-01T15:07:54.302Z,95.57
2022-11-01T15:10:22.116Z,95.54
2022-11-01T15:12:57.709Z,95.40
2022-11-01T15:15:27.887Z,95.05
2022-11-01T15:17:56.514Z,94.77
2022-11-01T15:20:26.495Z,95.34
2022-11-01T15:22:55.072Z,95.27
2022-11-01T15:25:26.574Z,94.68
2022-11-01T15:27:55.344Z,94.15
2022-11-01T15:30:32.323Z,93.29
2022-11-01T15:33:25.785Z,92.01
2022-11-01T15:36:00.053Z,91.44
2022-11-01T15:38:27.874Z,91.93
2022-11-01T15:40:54.718Z,91.25
2022-11-01T15:43:24.639Z,91.03
2022-11-01T15:45:58.539Z,92.28
2022-11-01T15:48:29.962Z,92.72
2022-11-01T15:51:00.810Z,93.85
2022-11-01T15:53:32.159Z,93.58
2022-11-01T15:56:07.403Z,93.64
2022-11-01T15:58:40.714Z,92.79
2022-11-01T16:01:14.404Z,93.33
2022-11-01T16:04:02.251Z,93.91
2022-11-01T16:06:43.615Z,94.65
2022-11-01T16:09:28.589Z,95.47
2022-11-01T16:11:59.022Z,95.73
2022-11-01T16:14:36.304Z,96.00
2022-11-01T16:17:19.562Z,96.71
2022-11-01T16:19:51.241Z,96.66
2022-11-01T16:22:42.825Z,97.37
2022-11-01T16:25:12.026Z,95.96
2022-11-01T16:28:11.096Z,95.74
2022-11-01T16:30:46.786Z,95.64
2022-11-01T16:33:35.605Z,95.73
2022-11-01T16:36:05.064Z,96.18
2022-11-01T16:38:38.036Z,94.53
2022-11-01T16:41:21.551Z,94.61
2022-11-01T16:43:52.894Z,94.18
2022-11-01T16:46:21.228Z,93.39
2022-11-01T16:48:56.803Z,94.10
2022-11-01T16:51:28.175Z,93.42
2022-11-01T16:53:56.867Z,92.69
2022-11-01T16:56:36.676Z,93.60
2022-11-01T16:59:29.337Z,93.65
2022-11-01T17:01:58.505Z,93.80
2022-11-01T17:04:27.444Z,93.04
2022-11-01T17:06:57.891Z,93.41
2022-11-01T17:09:24.981Z,93.19
2022-11-01T17:11:53.732Z,91.78
2022-11-01T17:14:22.227Z,91.48
2022-11-01T17:16:50.397Z,92.27
2022-11-01T17:19:26.282Z,92.92
2022-11-01T17:21:53.825Z,93.21
2022-11-01T17:24:23.978Z,92.30
2022-11-01T17:26:51.633Z,92.40
2022-11-01T17:29:18.348Z,92.51
2022-11-01T17:31:44.973Z,92.13
2022-11-01T17:34:11.574Z,91.40
2022-11-01T17:36:41.174Z,91.04
2022-11-01T17:39:10.005Z,91.09
2022-11-01T17:41:37.549Z,92.13
2022-11-01T17:44:04.141Z,92.00
2022-11-01T17:46:30.813Z,91.36
2022-11-01T17:48:57.458Z,91.63
2022-11-01T17:51:24.207Z,91.35
2022-11-01T17:53:55.251Z,91.87
2022-11-01T17:56:22.798Z,91.18
2022-11-01T17:58:52.229Z,90.83
2022-11-01T18:01:20.798Z,89.44
2022-11-01T18:03:48.005Z,88.32
2022-11-01T18:06:14.816Z,88.70
2022-11-01T18:08:51.935Z,90.05
2022-11-01T18:11:24.295Z,90.25
2022-11-01T18:14:06.031Z,91.26
2022-11-01T18:16:50.733Z,89.82
2022-11-01T18:19:42.636Z,89.93
2022-11-01T18:22:26.057Z,89.12
2022-11-01T18:24:59.407Z,89.32
2022-11-01T18:27:37.543Z,89.82
2022-11-01T18:30:19.024Z,89.38
2022-11-01T18:33:03.279Z,89.74
2022-11-01T18:35:53.900Z,89.37
2022-11-01T18:38:29.348Z,89.88
2022-11-01T18:41:01.101Z,90.88
2022-11-01T18:43:33.698Z,89.09
2022-11-01T18:48:59.250Z,88.21
2022-11-01T18:51:32.017Z,88.13
2022-11-01T18:54:14.154Z,88.40
2022-11-01T18:56:46.226Z,88.80
2022-11-01T18:59:15.047Z,88.51
2022-11-01T19:01:41.819Z,87.46
2022-11-01T19:04:17.904Z,88.64
2022-11-01T19:06:44.718Z,87.65
2022-11-01T19:09:22.967Z,86.83
2022-11-01T19:12:12.309Z,87.43
2022-11-01T19:14:40.134Z,88.01
2022-11-01T19:17:19.623Z,86.58
2022-11-01T19:19:47.214Z,86.26
2022-11-01T19:22:38.451Z,87.24
2022-11-01T19:25:35.635Z,87.25
2022-11-01T19:28:12.544Z,88.37
2022-11-01T19:30:39.381Z,87.77
2022-11-01T19:33:42.916Z,86.81
2022-11-01T19:36:18.220Z,86.84
2022-11-01T19:38:45.903Z,86.97
2022-11-01T19:41:15.638Z,86.26
2022-11-01T19:43:42.575Z,85.20
2022-11-01T19:46:15.374Z,86.25
2022-11-01T19:48:42.743Z,86.56
2022-11-01T19:51:18.543Z,87.27
2022-11-01T19:53:46.034Z,86.57
2022-11-01T19:56:20.744Z,85.65
2022-11-01T19:58:57.377Z,85.90
2022-11-01T20:01:43.281Z,86.09
2022-11-01T20:04:23.039Z,86.97
2022-11-01T20:06:59.577Z,85.11
2022-11-01T20:09:29.908Z,85.42
2022-11-01T20:11:56.581Z,84.99
2022-11-01T20:14:23.737Z,85.37
2022-11-01T20:16:50.500Z,85.49
2022-11-01T20:19:17.819Z,86.38
2022-11-01T20:21:45.395Z,86.52
2022-11-01T20:24:12.477Z,84.95
2022-11-01T20:26:39.504Z,85.15
2022-11-01T20:29:06.148Z,85.67
2022-11-01T20:31:33.035Z,84.96
2022-11-01T20:34:00.127Z,85.04
2022-11-01T20:36:28.143Z,85.00
2022-11-01T20:38:55.196Z,85.21
2022-11-01T20:41:22.381Z,85.97
2022-11-01T20:43:49.651Z,85.62
2022-11-01T20:46:16.577Z,84.71
2022-11-01T20:48:45.156Z,84.38
2022-11-01T20:51:13.040Z,84.03
2022-11-01T20:53:40.180Z,84.51
2022-11-01T20:56:07.638Z,85.16
2022-11-01T20:58:40.498Z,86.49
2022-11-01T21:01:18.372Z,85.61
2022-11-01T21:03:45.601Z,84.95
2022-11-01T21:06:14.596Z,85.49
2022-11-01T21:08:43.169Z,85.07
2022-11-01T21:11:43.981Z,85.21
2022-11-01T21:14:18.618Z,85.24
2022-11-01T21:16:46.523Z,85.62
2022-11-01T21:19:23.742Z,84.34
2022-11-01T21:21:58.202Z,86.11
2022-11-01T21:24:32.139Z,84.89
2022-11-01T21:27:06.080Z,85.07
2022-11-01T21:29:32.808Z,84.38
2022-11-01T21:32:00.287Z,84.23
2022-11-01T21:34:30.061Z,83.71
2022-11-01T21:36:58.493Z,83.66
2022-11-01T21:39:32.786Z,84.12
2022-11-01T21:42:18.198Z,84.70
2022-11-01T21:44:45.791Z,84.10
2022-11-01T21:47:21.257Z,86.17
2022-11-01T21:49:48.043Z,87.16
2022-11-01T21:52:14.991Z,86.38
2022-11-01T21:54:42.423Z,84.60
2022-11-01T21:57:10.792Z,84.24
2022-11-01T21:59:37.921Z,84.93
2022-11-01T22:02:06.583Z,84.00
2022-11-01T22:04:33.752Z,84.65
2022-11-01T22:07:03.772Z,84.97
2022-11-01T22:09:31.608Z,83.69
2022-11-01T22:11:59.149Z,83.57
2022-11-01T22:14:26.017Z,84.07
2022-11-01T22:16:52.796Z,84.37
2022-11-01T22:19:19.573Z,84.33
2022-11-01T22:24:17.926Z,83.73
2022-11-01T22:26:44.563Z,83.80
2022-11-01T22:29:11.357Z,84.56
2022-11-01T22:31:37.883Z,85.23
2022-11-01T22:34:04.623Z,84.93
2022-11-01T22:36:35.362Z,83.76
2022-11-01T22:39:12.695Z,84.21
2022-11-01T22:41:40.537Z,83.70
2022-11-01T22:44:16.410Z,83.54
2022-11-01T22:46:58.634Z,84.34
2022-11-01T22:49:40.732Z,84.43
2022-11-01T22:52:29.309Z,86.01
2022-11-01T22:55:08.115Z,85.00
2022-11-01T22:57:40.731Z,84.55
2022-11-01T23:00:27.868Z,84.71
2022-11-01T23:03:02.085Z,83.54
2022-11-01T23:05:29.196Z,82.56
2022-11-01T23:07:59.760Z,83.44
2022-11-01T23:10:34.003Z,83.96
2022-11-01T23:13:28.546Z,84.15
2022-11-01T23:16:14.469Z,85.27
2022-11-01T23:18:43.367Z,85.46
2022-11-01T23:21:10.398Z,85.88
2022-11-01T23:23:40.887Z,86.67
2022-11-01T23:26:08.188Z,85.59
2022-11-01T23:28:37.119Z,85.02
2022-11-01T23:31:05.050Z,84.63
2022-11-01T23:33:50.366Z,84.39
2022-11-01T23:36:32.092Z,84.43
2022-11-01T23:39:02.311Z,83.79
2022-11-01T23:41:40.895Z,83.63
2022-11-01T23:44:30.722Z,85.24
2022-11-01T23:47:08.010Z,85.25
2022-11-01T23:49:35.520Z,84.30
2022-11-01T23:52:11.383Z,84.35
2022-11-01T23:54:42.928Z,82.58
2022-11-01T23:57:17.520Z,82.75
2022-11-01T23:59:44.296Z,82.79
